.
WxDataArchive / Data Records for 2012-08-04
2012-08-03 August 2012 2012-08-05

Data Records for Saturday, 04 August 2012

Time	Temp	Chill	HIndex	Humid	Dewpt	 Wind 	HiWind	WindDir	Rain 	Barom 
-----	----	-----	------	-----	-----	------	------	-------	-----	----- 
00:00	77.7	77.7	79.5	65	65.0	0	1	112	0.00	29.884 
00:05	77.7	77.7	79.5	65	65.0	0	0	---	0.00	29.884 
00:10	77.7	77.7	79.5	65	65.0	0	1	112	0.00	29.884 
00:15	77.7	77.7	79.5	65	65.0	0	1	112	0.00	29.879 
00:20	77.6	77.6	79.4	65	64.9	0	0	---	0.00	29.879 
00:25	77.4	77.4	79.2	65	64.7	0	1	112	0.00	29.879 
00:30	77.2	77.2	79.0	65	64.5	0	1	112	0.00	29.883 
00:35	77.2	77.2	79.0	65	64.5	0	0	---	0.00	29.883 
00:40	77.0	77.0	78.8	66	64.8	0	0	---	0.00	29.883 
00:45	76.7	76.7	78.5	67	64.9	0	0	---	0.00	29.884 
00:50	76.5	76.5	78.3	67	64.7	0	0	---	0.00	29.884 
00:55	76.1	76.1	77.8	68	64.8	0	0	---	0.00	29.884 
01:00	76.0	76.0	77.7	68	64.7	0	0	---	0.00	29.886 
01:05	75.6	75.6	77.3	69	64.7	0	0	---	0.00	29.886 
01:10	75.4	75.4	77.1	70	64.9	0	0	---	0.00	29.886 
01:15	75.3	75.3	77.0	70	64.8	0	0	---	0.00	29.888 
01:20	75.1	75.1	76.8	70	64.6	0	0	---	0.00	29.888 
01:25	74.9	74.9	74.9	71	64.8	0	0	---	0.00	29.888 
01:30	74.7	74.7	74.7	71	64.7	0	0	---	0.00	29.900 
01:35	74.6	74.6	74.6	72	65.0	0	0	---	0.00	29.900 
01:40	74.4	74.4	74.4	73	65.2	0	0	---	0.00	29.900 
01:45	74.4	74.4	74.4	73	65.2	0	0	---	0.00	29.893 
01:50	74.2	74.2	74.2	74	65.4	0	0	---	0.00	29.893 
01:55	74.2	74.2	74.2	75	65.8	0	0	---	0.00	29.893 
02:00	74.0	74.0	74.0	75	65.6	0	0	---	0.00	29.898 
02:05	74.0	74.0	74.0	75	65.6	0	1	112	0.00	29.898 
02:10	74.0	74.0	74.0	76	65.9	0	0	---	0.00	29.898 
02:15	74.0	74.0	74.0	76	65.9	0	0	---	0.00	29.903 
02:20	73.9	73.9	73.9	77	66.2	0	0	---	0.00	29.903 
02:25	73.7	73.7	73.7	77	66.0	0	0	---	0.00	29.903 
02:30	73.5	73.5	73.5	78	66.2	0	0	---	0.00	29.907 
02:35	73.3	73.3	73.3	78	66.0	0	0	---	0.00	29.907 
02:40	73.3	73.3	73.3	78	66.0	0	0	---	0.00	29.907 
02:45	73.2	73.2	73.2	79	66.3	0	0	---	0.00	29.913 
02:50	73.0	73.0	73.0	79	66.1	0	0	---	0.00	29.913 
02:55	72.8	72.8	72.8	80	66.3	0	0	---	0.00	29.913 
03:00	72.7	72.7	72.7	80	66.2	0	0	---	0.00	29.915 
03:05	72.5	72.5	72.5	80	66.0	0	0	---	0.00	29.915 
03:10	72.3	72.3	72.3	81	66.1	0	0	---	0.00	29.915 
03:15	72.1	72.1	72.1	81	65.9	0	0	---	0.00	29.912 
03:20	71.8	71.8	71.8	82	66.0	0	0	---	0.00	29.912 
03:25	71.6	71.6	71.6	82	65.8	0	0	---	0.00	29.912 
03:30	71.5	71.5	71.5	83	66.1	0	0	---	0.00	29.913 
03:35	71.3	71.3	71.3	84	66.2	0	0	---	0.00	29.913 
03:40	71.1	71.1	71.1	84	66.0	0	0	---	0.00	29.913 
03:45	71.1	71.1	71.1	84	66.0	0	0	---	0.00	29.904 
03:50	70.9	70.9	70.9	84	65.8	0	0	---	0.00	29.904 
03:55	70.8	70.8	70.8	85	66.1	0	0	---	0.00	29.904 
04:00	70.8	70.8	70.8	85	66.1	0	0	---	0.00	29.902 
04:05	70.6	70.6	70.6	86	66.2	0	0	---	0.00	29.902 
04:10	70.4	70.4	70.4	86	66.0	0	0	---	0.00	29.902 
04:15	70.4	70.4	70.4	86	66.0	0	0	---	0.00	29.903 
04:20	70.3	70.3	70.3	86	65.9	0	0	---	0.00	29.903 
04:25	70.3	70.3	70.3	86	65.9	0	0	---	0.00	29.903 
04:30	70.1	70.1	70.1	87	66.0	0	0	---	0.00	29.903 
04:35	70.1	70.1	70.1	87	66.0	0	0	---	0.00	29.903 
04:40	69.9	69.9	69.9	87	65.8	0	0	---	0.00	29.903 
04:45	69.9	69.9	69.9	88	66.2	0	0	---	0.00	29.905 
04:50	69.8	69.8	69.8	88	66.1	0	0	---	0.00	29.905 
04:55	69.8	69.8	69.8	88	66.1	0	0	---	0.00	29.905 
05:00	69.8	69.8	69.8	88	66.1	0	0	---	0.00	29.905 
05:05	69.8	69.8	69.8	88	66.1	0	0	---	0.00	29.905 
05:10	69.8	69.8	69.8	88	66.1	0	0	---	0.00	29.905 
05:15	69.8	69.8	69.8	89	66.4	0	0	---	0.00	29.906 
05:20	69.8	69.8	69.8	89	66.4	0	0	---	0.00	29.906 
05:25	69.6	69.6	69.6	89	66.2	0	0	---	0.00	29.906 
05:30	69.6	69.6	69.6	89	66.2	0	0	---	0.00	29.907 
05:35	69.6	69.6	69.6	89	66.2	0	0	---	0.00	29.907 
05:40	69.6	69.6	69.6	89	66.2	0	1	112	0.00	29.907 
05:45	69.6	69.6	69.6	90	66.5	0	1	112	0.00	29.918 
05:50	69.6	69.6	69.6	90	66.5	0	1	112	0.00	29.918 
05:55	69.4	69.4	69.4	90	66.3	0	0	---	0.00	29.918 
06:00	69.4	69.4	69.4	90	66.3	0	0	---	0.00	29.915 
06:05	69.3	69.3	69.3	90	66.2	0	0	---	0.00	29.915 
06:10	69.3	69.3	69.3	90	66.2	0	0	---	0.00	29.915 
06:15	69.3	69.3	69.3	91	66.6	0	0	---	0.00	29.916 
06:20	69.1	69.1	69.1	90	66.0	0	0	---	0.00	29.916 
06:25	69.1	69.1	69.1	91	66.4	0	0	---	0.00	29.916 
06:30	69.1	69.1	69.1	91	66.4	0	0	---	0.00	29.922 
06:35	68.9	68.9	68.9	91	66.2	0	0	---	0.00	29.922 
06:40	68.9	68.9	68.9	91	66.2	0	0	---	0.00	29.922 
06:45	68.8	68.8	68.8	91	66.1	0	0	---	0.00	29.921 
06:50	68.8	68.8	68.8	91	66.1	0	0	---	0.00	29.921 
06:55	68.8	68.8	68.8	91	66.1	0	0	---	0.00	29.921 
07:00	68.6	68.6	68.6	91	65.9	0	0	---	0.00	29.921 
07:05	68.8	68.8	68.8	92	66.4	0	0	---	0.00	29.921 
07:10	68.8	68.8	68.8	92	66.4	0	0	---	0.00	29.921 
07:15	68.9	68.9	68.9	92	66.5	0	0	---	0.00	29.928 
07:20	69.1	69.1	69.1	92	66.7	0	0	---	0.00	29.928 
07:25	69.4	69.4	69.4	92	67.0	0	1	112	0.00	29.928 
07:30	69.6	69.6	69.6	92	67.2	0	1	112	0.00	29.924 
07:35	69.9	69.9	69.9	92	67.5	0	1	112	0.00	29.924 
07:40	70.3	70.3	70.3	92	67.9	0	2	112	0.00	29.924 
07:45	70.6	70.6	70.6	92	68.2	0	1	112	0.00	29.921 
07:50	70.9	70.9	70.9	92	68.5	0	1	112	0.00	29.921 
07:55	71.3	71.3	71.3	91	68.5	0	1	112	0.00	29.921 
08:00	71.6	71.6	71.6	90	68.5	0	1	112	0.00	29.920 
08:05	72.0	72.0	72.0	90	68.9	0	1	112	0.00	29.920 
08:10	72.3	72.3	72.3	89	68.9	0	1	112	0.00	29.920 
08:15	72.5	72.5	72.5	88	68.7	0	2	112	0.00	29.920 
08:20	72.7	72.7	72.7	88	68.9	0	1	112	0.00	29.920 
08:25	72.8	72.8	72.8	88	69.0	0	3	112	0.00	29.920 
08:30	73.0	73.0	73.0	87	68.9	0	3	112	0.00	29.924 
08:35	73.3	73.3	73.3	86	68.8	0	1	112	0.00	29.924 
08:40	73.9	73.9	73.9	85	69.1	0	1	112	0.00	29.924 
08:45	74.2	74.2	74.2	85	69.4	0	1	112	0.00	29.922 
08:50	74.7	74.7	74.7	84	69.5	1	3	112	0.00	29.922 
08:55	75.3	75.3	75.5	84	70.1	0	2	112	0.00	29.922 
09:00	75.8	75.8	76.5	82	69.9	0	2	112	0.00	29.922 
09:05	76.3	76.3	77.4	81	70.0	0	2	112	0.00	29.922 
09:10	76.7	76.7	78.0	81	70.4	0	2	112	0.00	29.922 
09:15	76.7	76.7	78.0	81	70.4	1	2	112	0.00	29.928 
09:20	76.7	76.7	78.0	81	70.4	0	3	112	0.00	29.928 
09:25	76.7	76.7	78.0	82	70.8	1	3	112	0.00	29.928 
09:30	77.0	77.0	78.5	81	70.7	1	4	112	0.00	29.924 
09:35	77.6	77.6	79.6	80	70.9	1	3	112	0.00	29.924 
09:40	78.1	78.1	80.4	78	70.7	0	2	112	0.00	29.924 
09:45	78.6	78.6	81.2	77	70.8	2	6	90	0.00	29.922 
09:50	78.8	78.8	81.6	77	71.0	1	2	90	0.00	29.922 
09:55	79.4	79.4	82.6	76	71.2	1	3	90	0.00	29.922 
10:00	79.9	79.9	83.4	75	71.2	1	4	90	0.00	29.919 
10:05	79.9	79.9	83.4	75	71.2	1	4	112	0.00	29.919 
10:10	80.1	80.1	83.8	75	71.4	1	3	135	0.00	29.919 
10:15	80.1	80.1	83.8	75	71.4	1	3	112	0.00	29.917 
10:20	80.1	80.1	83.9	76	71.8	1	3	135	0.00	29.917 
10:25	79.9	79.9	83.6	77	72.0	1	4	135	0.00	29.917 
10:30	79.6	79.6	83.1	77	71.7	1	3	135	0.00	29.919 
10:35	79.4	79.4	82.7	77	71.5	1	2	135	0.00	29.919 
10:40	79.2	79.2	82.4	78	71.7	1	4	135	0.00	29.919 
10:45	79.0	79.0	82.0	78	71.5	0	1	135	0.00	29.915 
10:50	79.0	79.0	82.1	79	71.9	1	3	135	0.00	29.915 
10:55	79.4	79.4	82.8	78	71.9	1	3	158	0.00	29.915 
11:00	79.9	79.9	83.6	77	72.0	1	4	202	0.00	29.910 
11:05	80.1	80.1	83.9	76	71.8	1	3	90	0.00	29.910 
11:10	80.3	80.3	84.3	76	72.0	0	2	90	0.00	29.910 
11:15	80.7	80.7	84.9	75	72.0	0	2	112	0.00	29.909 
11:20	80.9	80.9	85.3	75	72.2	1	2	112	0.00	29.909 
11:25	81.1	81.1	85.3	73	71.6	1	3	112	0.00	29.909 
11:30	81.6	81.6	86.3	73	72.1	1	3	112	0.00	29.908 
11:35	82.0	82.0	86.9	72	72.1	1	3	135	0.00	29.908 
11:40	82.2	82.2	87.0	71	71.8	1	3	248	0.00	29.908 
11:45	82.4	82.4	87.4	71	72.0	1	3	248	0.00	29.908 
11:50	82.0	82.0	86.9	72	72.1	1	4	135	0.00	29.908 
11:55	81.8	81.8	86.7	73	72.3	1	3	135	0.00	29.908 
12:00	82.0	82.0	86.9	72	72.1	1	5	135	0.00	29.912 
12:05	82.2	82.2	87.3	72	72.2	0	2	68	0.00	29.912 
12:10	82.4	82.4	87.7	72	72.4	0	2	68	0.00	29.912 
12:15	82.6	82.6	88.1	72	72.6	1	3	68	0.00	29.907 
12:20	82.8	82.8	88.5	72	72.8	1	3	90	0.00	29.907 
12:25	83.0	83.0	88.9	72	73.0	1	4	112	0.00	29.907 
12:30	82.8	82.8	88.5	72	72.8	1	3	135	0.00	29.904 
12:35	82.6	82.6	88.4	73	73.0	1	5	90	0.00	29.904 
12:40	82.6	82.6	88.4	73	73.0	1	4	90	0.00	29.904 
12:45	82.8	82.8	88.8	73	73.2	1	4	90	0.00	29.897 
12:50	83.2	83.2	89.7	73	73.6	2	5	90	0.00	29.897 
12:55	84.0	84.0	90.5	70	73.1	1	3	90	0.00	29.897 
13:00	84.9	84.9	91.7	68	73.1	1	4	112	0.00	29.894 
13:05	84.9	84.9	91.7	68	73.1	2	7	90	0.00	29.894 
13:10	84.7	84.7	91.7	69	73.4	1	4	90	0.00	29.894 
13:15	84.9	84.9	91.7	68	73.1	1	3	90	0.00	29.892 
13:20	85.1	85.1	91.8	67	72.9	1	4	90	0.00	29.892 
13:25	84.9	84.9	91.7	68	73.1	1	4	90	0.00	29.892 
13:30	84.5	84.5	91.2	69	73.2	1	5	90	0.00	29.894 
13:35	84.3	84.3	90.8	69	73.0	2	5	112	0.00	29.894 
13:40	84.3	84.3	90.8	69	73.0	2	5	68	0.00	29.894 
13:45	84.3	84.3	90.8	69	73.0	1	5	90	0.00	29.892 
13:50	84.1	84.1	90.7	70	73.2	2	5	45	0.00	29.892 
13:55	84.0	84.0	90.8	71	73.6	1	6	158	0.00	29.892 
14:00	83.8	83.8	90.7	72	73.8	2	5	112	0.00	29.890 
14:05	84.0	84.0	91.5	73	74.4	1	5	158	0.00	29.890 
14:10	84.0	84.0	91.5	73	74.4	2	7	90	0.00	29.890 
14:15	84.0	84.0	91.1	72	74.0	2	6	135	0.00	29.888 
14:20	84.1	84.1	91.4	72	74.1	2	6	315	0.00	29.888 
14:25	84.1	84.1	91.4	72	74.1	2	5	270	0.00	29.888 
14:30	84.1	84.1	91.4	72	74.1	2	5	270	0.00	29.891 
14:35	84.3	84.3	91.5	71	73.8	1	4	45	0.00	29.891 
14:40	84.5	84.5	91.6	70	73.6	1	5	90	0.00	29.891 
14:45	84.7	84.7	91.7	69	73.4	2	6	90	0.00	29.876 
14:50	84.9	84.9	92.5	70	74.0	1	3	45	0.00	29.876 
14:55	85.1	85.1	92.6	69	73.8	1	4	248	0.00	29.876 
15:00	85.5	85.5	93.5	69	74.1	1	4	68	0.00	29.874 
15:05	85.9	85.9	93.6	67	73.6	1	3	45	0.00	29.874 
15:10	86.1	86.1	93.6	66	73.4	2	5	45	0.00	29.874 
15:15	86.3	86.3	93.6	65	73.1	3	6	90	0.00	29.861 
15:20	87.2	87.2	95.2	64	73.5	2	4	90	0.00	29.861 
15:25	87.6	87.6	95.7	63	73.4	2	4	315	0.00	29.861 
15:30	88.6	88.6	97.5	62	73.9	1	5	90	0.00	29.857 
15:35	89.0	89.0	97.9	61	73.8	2	5	270	0.00	29.857 
15:40	89.0	89.0	97.4	60	73.3	2	7	248	0.00	29.857 
15:45	89.3	89.3	97.5	59	73.1	2	5	90	0.00	29.842 
15:50	89.3	89.3	97.5	59	73.1	2	6	90	0.00	29.842 
15:55	89.3	89.3	97.5	59	73.1	1	5	90	0.00	29.842 
16:00	89.3	89.3	97.0	58	72.5	2	5	248	0.00	29.832 
16:05	89.5	89.5	97.4	58	72.7	3	9	90	0.00	29.832 
16:10	89.9	89.9	98.3	58	73.1	2	6	90	0.00	29.832 
16:15	90.5	90.5	99.7	58	73.7	1	3	68	0.00	29.836 
16:20	91.0	91.0	99.7	56	73.1	2	5	112	0.00	29.836 
16:25	90.7	90.7	99.6	57	73.3	2	6	90	0.00	29.836 
16:30	90.3	90.3	98.7	57	73.0	3	9	90	0.00	29.826 
16:35	89.7	89.7	97.9	58	72.9	2	5	158	0.00	29.826 
16:40	89.5	89.5	97.4	58	72.7	1	7	90	0.00	29.826 
16:45	89.5	89.5	97.4	58	72.7	2	5	68	0.00	29.825 
16:50	89.5	89.5	97.4	58	72.7	2	5	90	0.00	29.825 
16:55	89.9	89.9	98.3	58	73.1	1	2	135	0.00	29.825 
17:00	90.7	90.7	99.1	56	72.8	1	5	135	0.00	29.821 
17:05	91.4	91.4	100.7	56	73.5	1	3	135	0.00	29.821 
17:10	91.2	91.2	99.0	54	72.2	2	3	248	0.00	29.821 
17:15	90.7	90.7	99.1	56	72.8	1	5	90	0.00	29.829 
17:20	90.1	90.1	98.3	57	72.8	2	9	270	0.00	29.829 
17:25	89.3	89.3	97.0	58	72.5	1	3	292	0.00	29.829 
17:30	88.8	88.8	96.4	59	72.6	1	7	90	0.00	29.840 
17:35	88.6	88.6	96.5	60	72.9	0	2	90	0.00	29.840 
17:40	88.2	88.2	96.1	61	73.0	1	3	0	0.00	29.840 
17:45	88.0	88.0	96.1	62	73.3	1	2	0	0.00	29.859 
17:50	87.8	87.8	94.7	60	72.1	1	6	0	0.00	29.859 
17:55	85.1	85.1	88.8	58	68.6	5	11	248	0.00	29.859 
18:00	80.3	80.3	83.3	69	69.2	3	6	270	0.05	29.876 
18:05	76.8	76.8	78.4	75	68.3	2	6	248	0.05	29.876 
18:10	75.3	75.3	75.9	81	69.1	1	5	270	0.03	29.876 
18:15	74.6	74.6	74.6	84	69.4	0	2	270	0.00	29.846 
18:20	74.4	74.4	74.4	85	69.6	1	4	112	0.00	29.846 
18:25	74.2	74.2	74.2	86	69.7	1	4	68	0.00	29.846 
18:30	74.2	74.2	74.2	87	70.1	0	2	68	0.00	29.824 
18:35	74.0	74.0	74.0	88	70.2	0	0	---	0.00	29.824 
18:40	73.9	73.9	73.9	89	70.4	0	0	---	0.00	29.824 
18:45	74.0	74.0	74.0	89	70.5	0	2	68	0.00	29.830 
18:50	74.2	74.2	74.2	90	71.1	0	3	68	0.00	29.830 
18:55	74.2	74.2	74.2	90	71.1	0	1	68	0.00	29.830 
19:00	74.2	74.2	74.2	90	71.1	0	1	68	0.00	29.845 
19:05	74.4	74.4	74.4	90	71.3	0	0	---	0.00	29.845 
19:10	74.6	74.6	74.6	90	71.5	0	0	---	0.00	29.845 
19:15	74.7	74.7	74.7	91	71.9	0	0	---	0.00	29.841 
19:20	74.9	74.9	74.9	90	71.8	0	2	68	0.00	29.841 
19:25	74.9	74.9	74.9	90	71.8	0	1	68	0.00	29.841 
19:30	75.1	75.1	74.3	90	72.0	1	3	68	0.00	29.825 
19:35	75.1	75.1	74.4	89	71.6	2	4	68	0.00	29.825 
19:40	75.1	75.1	74.6	88	71.3	2	6	68	0.00	29.825 
19:45	74.7	74.7	74.7	86	70.2	4	10	90	0.00	29.808 
19:50	74.4	74.4	74.4	87	70.3	2	6	68	0.00	29.808 
19:55	74.2	74.2	74.2	87	70.1	2	6	68	0.02	29.808 
20:00	74.2	74.2	74.2	88	70.4	2	12	270	0.06	29.874 
20:05	72.8	72.8	72.8	88	69.0	10	16	270	0.10	29.874 
20:10	71.6	71.6	71.6	90	68.5	5	16	315	0.11	29.874 
20:15	71.1	71.1	71.1	92	68.7	5	11	292	0.13	29.889 
20:20	70.8	70.8	70.8	92	68.4	3	7	315	0.11	29.889 
20:25	70.6	70.6	70.6	93	68.5	1	4	292	0.08	29.889 
20:30	70.4	70.4	70.4	93	68.3	0	3	315	0.05	29.870 
20:35	70.3	70.3	70.3	93	68.2	0	4	270	0.05	29.870 
20:40	70.1	70.1	70.1	93	68.0	0	1	270	0.01	29.870 
20:45	70.3	70.3	70.3	94	68.5	1	3	90	0.02	29.852 
20:50	70.3	70.3	70.3	94	68.5	0	2	90	0.00	29.852 
20:55	70.3	70.3	70.3	94	68.5	0	2	90	0.01	29.852 
21:00	70.3	70.3	70.3	94	68.5	1	4	90	0.00	29.899 
21:05	70.3	70.3	70.3	94	68.5	1	3	90	0.00	29.899 
21:10	70.1	70.1	70.1	94	68.3	1	4	90	0.00	29.899 
21:15	70.1	70.1	70.1	94	68.3	1	5	90	0.00	29.875 
21:20	70.3	70.3	70.3	95	68.8	0	2	90	0.01	29.875 
21:25	70.3	70.3	70.3	95	68.8	1	2	90	0.00	29.875 
21:30	70.3	70.3	70.3	95	68.8	1	4	90	0.00	29.896 
21:35	70.3	70.3	70.3	95	68.8	0	1	135	0.00	29.896 
21:40	70.4	70.4	70.4	95	68.9	1	2	135	0.00	29.896 
21:45	70.6	70.6	70.6	95	69.1	2	5	112	0.00	29.911 
21:50	70.6	70.6	70.6	95	69.1	1	3	112	0.00	29.911 
21:55	70.6	70.6	70.6	95	69.1	1	3	112	0.00	29.911 
22:00	70.4	70.4	70.4	95	68.9	1	4	90	0.00	29.905 
22:05	70.4	70.4	70.4	95	68.9	1	3	90	0.00	29.905 
22:10	70.4	70.4	70.4	95	68.9	1	3	90	0.00	29.905 
22:15	70.4	70.4	70.4	95	68.9	0	1	90	0.00	29.903 
22:20	70.4	70.4	70.4	95	68.9	0	1	90	0.00	29.903 
22:25	70.4	70.4	70.4	95	68.9	0	1	90	0.00	29.903 
22:30	70.4	70.4	70.4	95	68.9	0	2	90	0.00	29.897 
22:35	70.4	70.4	70.4	95	68.9	0	1	90	0.00	29.897 
22:40	70.4	70.4	70.4	95	68.9	0	1	90	0.00	29.897 
22:45	70.4	70.4	70.4	95	68.9	0	1	90	0.00	29.894 
22:50	70.4	70.4	70.4	95	68.9	0	1	90	0.00	29.894 
22:55	70.3	70.3	70.3	95	68.8	0	2	90	0.00	29.894 
23:00	70.3	70.3	70.3	95	68.8	0	1	90	0.00	29.892 
23:05	70.3	70.3	70.3	95	68.8	0	1	90	0.00	29.892 
23:10	70.4	70.4	70.4	95	68.9	0	1	90	0.00	29.892 
23:15	70.4	70.4	70.4	95	68.9	0	1	90	0.00	29.886 
23:20	70.4	70.4	70.4	95	68.9	0	1	90	0.00	29.886 
23:25	70.4	70.4	70.4	95	68.9	0	0	---	0.00	29.886 
23:30	70.4	70.4	70.4	95	68.9	0	2	90	0.00	29.880 
23:35	70.6	70.6	70.6	96	69.4	0	2	90	0.00	29.880 
23:40	70.8	70.8	70.8	96	69.6	0	2	90	0.00	29.880 
23:45	70.9	70.9	70.9	96	69.7	0	2	90	0.00	29.872 
23:50	71.1	71.1	71.1	96	69.9	0	3	292	0.00	29.872 
23:55	71.1	71.1	71.1	96	69.9	0	1	292	0.00	29.872 

CoCoRaHS
IN-AL-39
A2 Web Hosting
Creative Commons License
GoDaddy
search engine by freefind advanced

loaded 2018-11-19 19:56:45 • last modified 2010-11-18 10:43:29
Privacy PolicyDisclaimer
• wx.awcolley.com is powered by PmWiki v.2002016 •
• all content (unless otherwise noted) © 2018 A W Colley